sensor_id;sensor_type;location;lat;lon;timestamp;P1;durP1;ratioP1;P2;durP2;ratioP2
52744;SDS011;38637;49.984;20.426;2022-12-07T00:03:31;5.70;;;5.13;;
52744;SDS011;38637;49.984;20.426;2022-12-07T00:05:59;6.43;;;5.00;;
52744;SDS011;38637;49.984;20.426;2022-12-07T00:08:25;6.57;;;4.72;;
52744;SDS011;38637;49.984;20.426;2022-12-07T00:10:51;6.30;;;4.90;;
52744;SDS011;38637;49.984;20.426;2022-12-07T00:13:16;6.03;;;4.53;;
52744;SDS011;38637;49.984;20.426;2022-12-07T00:15:41;6.30;;;4.97;;
52744;SDS011;38637;49.984;20.426;2022-12-07T00:18:07;6.07;;;4.70;;
52744;SDS011;38637;49.984;20.426;2022-12-07T00:20:32;5.17;;;4.17;;
52744;SDS011;38637;49.984;20.426;2022-12-07T00:22:58;5.53;;;4.83;;
52744;SDS011;38637;49.984;20.426;2022-12-07T00:25:23;5.07;;;4.23;;
52744;SDS011;38637;49.984;20.426;2022-12-07T00:27:49;5.73;;;5.00;;
52744;SDS011;38637;49.984;20.426;2022-12-07T00:30:14;4.63;;;4.23;;
52744;SDS011;38637;49.984;20.426;2022-12-07T00:32:40;6.07;;;5.07;;
52744;SDS011;38637;49.984;20.426;2022-12-07T00:35:05;6.07;;;5.00;;
52744;SDS011;38637;49.984;20.426;2022-12-07T00:37:31;8.47;;;5.00;;
52744;SDS011;38637;49.984;20.426;2022-12-07T00:39:56;4.80;;;4.30;;
52744;SDS011;38637;49.984;20.426;2022-12-07T00:42:21;6.43;;;5.33;;
52744;SDS011;38637;49.984;20.426;2022-12-07T00:44:46;7.97;;;6.70;;
52744;SDS011;38637;49.984;20.426;2022-12-07T00:47:12;6.87;;;5.83;;
52744;SDS011;38637;49.984;20.426;2022-12-07T00:49:37;6.83;;;5.53;;
52744;SDS011;38637;49.984;20.426;2022-12-07T00:52:02;8.97;;;5.83;;
52744;SDS011;38637;49.984;20.426;2022-12-07T00:54:28;6.80;;;4.50;;
52744;SDS011;38637;49.984;20.426;2022-12-07T00:56:53;5.70;;;5.10;;
52744;SDS011;38637;49.984;20.426;2022-12-07T00:59:19;5.63;;;4.80;;
52744;SDS011;38637;49.984;20.426;2022-12-07T01:01:44;5.87;;;4.80;;
52744;SDS011;38637;49.984;20.426;2022-12-07T01:04:09;5.43;;;4.90;;
52744;SDS011;38637;49.984;20.426;2022-12-07T01:06:35;7.07;;;5.00;;
52744;SDS011;38637;49.984;20.426;2022-12-07T01:09:00;6.97;;;5.80;;
52744;SDS011;38637;49.984;20.426;2022-12-07T01:11:27;8.20;;;5.97;;
52744;SDS011;38637;49.984;20.426;2022-12-07T01:13:54;8.18;;;6.25;;
52744;SDS011;38637;49.984;20.426;2022-12-07T01:16:21;8.93;;;6.38;;
52744;SDS011;38637;49.984;20.426;2022-12-07T01:21:15;9.52;;;6.40;;
52744;SDS011;38637;49.984;20.426;2022-12-07T01:23:42;8.10;;;6.28;;
52744;SDS011;38637;49.984;20.426;2022-12-07T01:26:10;10.70;;;7.00;;
52744;SDS011;38637;49.984;20.426;2022-12-07T01:28:36;7.60;;;6.35;;
52744;SDS011;38637;49.984;20.426;2022-12-07T01:31:05;6.97;;;5.73;;
52744;SDS011;38637;49.984;20.426;2022-12-07T01:33:34;6.93;;;5.60;;
52744;SDS011;38637;49.984;20.426;2022-12-07T01:36:02;9.70;;;6.13;;
52744;SDS011;38637;49.984;20.426;2022-12-07T01:38:29;7.05;;;5.72;;
52744;SDS011;38637;49.984;20.426;2022-12-07T01:40:55;10.32;;;6.25;;
52744;SDS011;38637;49.984;20.426;2022-12-07T01:43:21;6.13;;;5.50;;
52744;SDS011;38637;49.984;20.426;2022-12-07T01:45:48;6.70;;;5.60;;
52744;SDS011;38637;49.984;20.426;2022-12-07T01:48:14;7.13;;;5.03;;
52744;SDS011;38637;49.984;20.426;2022-12-07T01:50:43;6.30;;;5.70;;
52744;SDS011;38637;49.984;20.426;2022-12-07T01:53:11;11.05;;;5.88;;
52744;SDS011;38637;49.984;20.426;2022-12-07T01:55:40;7.15;;;5.95;;
52744;SDS011;38637;49.984;20.426;2022-12-07T01:58:09;7.90;;;6.15;;
52744;SDS011;38637;49.984;20.426;2022-12-07T02:00:36;8.52;;;6.45;;
52744;SDS011;38637;49.984;20.426;2022-12-07T02:03:07;8.23;;;6.60;;
52744;SDS011;38637;49.984;20.426;2022-12-07T02:05:37;8.13;;;6.53;;
52744;SDS011;38637;49.984;20.426;2022-12-07T02:08:05;10.82;;;6.38;;
52744;SDS011;38637;49.984;20.426;2022-12-07T02:10:31;8.20;;;6.80;;
52744;SDS011;38637;49.984;20.426;2022-12-07T02:13:19;11.37;;;6.60;;
52744;SDS011;38637;49.984;20.426;2022-12-07T02:15:59;9.77;;;6.68;;
52744;SDS011;38637;49.984;20.426;2022-12-07T02:23:39;8.30;;;6.97;;
52744;SDS011;38637;49.984;20.426;2022-12-07T02:28:48;8.38;;;6.78;;
52744;SDS011;38637;49.984;20.426;2022-12-07T02:31:24;9.65;;;7.07;;
52744;SDS011;38637;49.984;20.426;2022-12-07T02:34:05;10.25;;;7.68;;
52744;SDS011;38637;49.984;20.426;2022-12-07T02:36:39;33.80;;;27.23;;
52744;SDS011;38637;49.984;20.426;2022-12-07T02:39:18;45.28;;;33.83;;
52744;SDS011;38637;49.984;20.426;2022-12-07T02:41:49;18.33;;;13.55;;
52744;SDS011;38637;49.984;20.426;2022-12-07T02:44:19;11.90;;;9.57;;
52744;SDS011;38637;49.984;20.426;2022-12-07T02:46:55;11.23;;;8.65;;
52744;SDS011;38637;49.984;20.426;2022-12-07T02:49:24;11.23;;;7.80;;
52744;SDS011;38637;49.984;20.426;2022-12-07T02:51:51;9.50;;;7.13;;
52744;SDS011;38637;49.984;20.426;2022-12-07T02:54:18;10.20;;;8.17;;
52744;SDS011;38637;49.984;20.426;2022-12-07T03:13:02;11.52;;;7.22;;
52744;SDS011;38637;49.984;20.426;2022-12-07T03:15:44;8.13;;;6.57;;
52744;SDS011;38637;49.984;20.426;2022-12-07T03:18:16;9.82;;;6.60;;
52744;SDS011;38637;49.984;20.426;2022-12-07T03:20:45;9.57;;;7.13;;
52744;SDS011;38637;49.984;20.426;2022-12-07T03:23:14;9.90;;;6.78;;
52744;SDS011;38637;49.984;20.426;2022-12-07T03:25:45;8.80;;;6.57;;
52744;SDS011;38637;49.984;20.426;2022-12-07T03:28:14;8.68;;;6.57;;
52744;SDS011;38637;49.984;20.426;2022-12-07T03:33:27;8.15;;;5.97;;
52744;SDS011;38637;49.984;20.426;2022-12-07T03:38:37;9.02;;;7.38;;
52744;SDS011;38637;49.984;20.426;2022-12-07T03:43:31;11.17;;;8.70;;
52744;SDS011;38637;49.984;20.426;2022-12-07T03:48:51;9.07;;;8.13;;
52744;SDS011;38637;49.984;20.426;2022-12-07T03:51:26;8.75;;;7.25;;
52744;SDS011;38637;49.984;20.426;2022-12-07T03:53:59;10.48;;;8.23;;
52744;SDS011;38637;49.984;20.426;2022-12-07T03:56:32;12.43;;;10.07;;
52744;SDS011;38637;49.984;20.426;2022-12-07T03:58:58;9.68;;;8.07;;
52744;SDS011;38637;49.984;20.426;2022-12-07T04:01:24;9.83;;;7.63;;
52744;SDS011;38637;49.984;20.426;2022-12-07T04:03:50;9.57;;;7.72;;
52744;SDS011;38637;49.984;20.426;2022-12-07T04:06:15;11.03;;;8.00;;
52744;SDS011;38637;49.984;20.426;2022-12-07T04:08:41;10.70;;;7.60;;
52744;SDS011;38637;49.984;20.426;2022-12-07T04:11:06;12.53;;;9.23;;
52744;SDS011;38637;49.984;20.426;2022-12-07T04:13:31;11.00;;;8.67;;
52744;SDS011;38637;49.984;20.426;2022-12-07T04:16:16;11.63;;;9.38;;
52744;SDS011;38637;49.984;20.426;2022-12-07T04:18:42;10.33;;;8.37;;
52744;SDS011;38637;49.984;20.426;2022-12-07T04:21:07;11.40;;;8.03;;
52744;SDS011;38637;49.984;20.426;2022-12-07T04:23:32;9.57;;;8.50;;
52744;SDS011;38637;49.984;20.426;2022-12-07T04:25:58;11.67;;;9.03;;
52744;SDS011;38637;49.984;20.426;2022-12-07T04:28:23;12.60;;;9.13;;
52744;SDS011;38637;49.984;20.426;2022-12-07T04:30:48;11.77;;;9.90;;
52744;SDS011;38637;49.984;20.426;2022-12-07T04:33:14;16.43;;;11.03;;
52744;SDS011;38637;49.984;20.426;2022-12-07T04:35:39;12.83;;;10.77;;
52744;SDS011;38637;49.984;20.426;2022-12-07T04:38:04;12.65;;;10.65;;
52744;SDS011;38637;49.984;20.426;2022-12-07T04:40:30;16.20;;;10.27;;
52744;SDS011;38637;49.984;20.426;2022-12-07T04:42:55;15.87;;;11.33;;
52744;SDS011;38637;49.984;20.426;2022-12-07T04:45:20;12.33;;;11.03;;
52744;SDS011;38637;49.984;20.426;2022-12-07T04:47:45;13.07;;;9.93;;
52744;SDS011;38637;49.984;20.426;2022-12-07T04:50:11;10.80;;;8.27;;
52744;SDS011;38637;49.984;20.426;2022-12-07T04:52:36;10.40;;;8.93;;
52744;SDS011;38637;49.984;20.426;2022-12-07T04:55:02;14.37;;;8.77;;
52744;SDS011;38637;49.984;20.426;2022-12-07T04:57:27;12.50;;;9.03;;
52744;SDS011;38637;49.984;20.426;2022-12-07T04:59:52;9.93;;;8.73;;
52744;SDS011;38637;49.984;20.426;2022-12-07T05:02:18;10.83;;;8.73;;
52744;SDS011;38637;49.984;20.426;2022-12-07T05:04:43;14.50;;;11.70;;
52744;SDS011;38637;49.984;20.426;2022-12-07T05:07:08;17.60;;;14.80;;
52744;SDS011;38637;49.984;20.426;2022-12-07T05:09:34;12.17;;;10.73;;
52744;SDS011;38637;49.984;20.426;2022-12-07T05:11:59;10.37;;;7.37;;
52744;SDS011;38637;49.984;20.426;2022-12-07T05:14:24;7.13;;;6.17;;
52744;SDS011;38637;49.984;20.426;2022-12-07T05:16:50;6.97;;;5.57;;
52744;SDS011;38637;49.984;20.426;2022-12-07T05:19:16;9.67;;;5.90;;
52744;SDS011;38637;49.984;20.426;2022-12-07T05:21:41;7.70;;;5.88;;
52744;SDS011;38637;49.984;20.426;2022-12-07T05:24:08;6.20;;;5.60;;
52744;SDS011;38637;49.984;20.426;2022-12-07T05:26:36;7.25;;;6.03;;
52744;SDS011;38637;49.984;20.426;2022-12-07T05:29:01;6.93;;;6.00;;
52744;SDS011;38637;49.984;20.426;2022-12-07T05:31:27;7.60;;;5.30;;
52744;SDS011;38637;49.984;20.426;2022-12-07T05:33:53;5.53;;;4.97;;
52744;SDS011;38637;49.984;20.426;2022-12-07T05:36:19;5.70;;;5.20;;
52744;SDS011;38637;49.984;20.426;2022-12-07T05:38:45;5.27;;;4.77;;
52744;SDS011;38637;49.984;20.426;2022-12-07T05:41:12;7.03;;;5.27;;
52744;SDS011;38637;49.984;20.426;2022-12-07T05:43:58;9.05;;;6.00;;
52744;SDS011;38637;49.984;20.426;2022-12-07T05:46:23;6.30;;;5.63;;
52744;SDS011;38637;49.984;20.426;2022-12-07T05:48:48;6.13;;;5.10;;
52744;SDS011;38637;49.984;20.426;2022-12-07T05:51:14;5.10;;;4.60;;
52744;SDS011;38637;49.984;20.426;2022-12-07T05:53:39;4.60;;;4.10;;
52744;SDS011;38637;49.984;20.426;2022-12-07T05:56:04;5.47;;;4.80;;
52744;SDS011;38637;49.984;20.426;2022-12-07T05:58:30;6.53;;;4.80;;
52744;SDS011;38637;49.984;20.426;2022-12-07T06:01:14;4.93;;;4.13;;
52744;SDS011;38637;49.984;20.426;2022-12-07T06:03:39;7.87;;;5.30;;
52744;SDS011;38637;49.984;20.426;2022-12-07T06:06:05;5.77;;;5.20;;
52744;SDS011;38637;49.984;20.426;2022-12-07T06:08:30;5.60;;;4.97;;
52744;SDS011;38637;49.984;20.426;2022-12-07T06:10:55;7.50;;;6.77;;
52744;SDS011;38637;49.984;20.426;2022-12-07T06:13:39;8.98;;;6.90;;
52744;SDS011;38637;49.984;20.426;2022-12-07T06:16:05;9.60;;;7.13;;
52744;SDS011;38637;49.984;20.426;2022-12-07T06:18:30;11.37;;;8.33;;
52744;SDS011;38637;49.984;20.426;2022-12-07T06:20:56;10.37;;;9.17;;
52744;SDS011;38637;49.984;20.426;2022-12-07T06:23:21;12.47;;;9.50;;
52744;SDS011;38637;49.984;20.426;2022-12-07T06:25:46;11.10;;;9.13;;
52744;SDS011;38637;49.984;20.426;2022-12-07T06:28:12;11.60;;;9.27;;
52744;SDS011;38637;49.984;20.426;2022-12-07T06:30:37;10.63;;;8.63;;
52744;SDS011;38637;49.984;20.426;2022-12-07T06:33:02;15.63;;;10.27;;
52744;SDS011;38637;49.984;20.426;2022-12-07T06:35:28;12.00;;;9.47;;
52744;SDS011;38637;49.984;20.426;2022-12-07T06:37:53;12.13;;;8.67;;
52744;SDS011;38637;49.984;20.426;2022-12-07T06:40:18;10.73;;;8.37;;
52744;SDS011;38637;49.984;20.426;2022-12-07T06:42:43;14.70;;;11.80;;
52744;SDS011;38637;49.984;20.426;2022-12-07T06:45:09;15.63;;;11.37;;
52744;SDS011;38637;49.984;20.426;2022-12-07T06:47:34;12.60;;;10.30;;
52744;SDS011;38637;49.984;20.426;2022-12-07T06:50:00;15.07;;;13.33;;
52744;SDS011;38637;49.984;20.426;2022-12-07T06:52:25;21.13;;;15.73;;
52744;SDS011;38637;49.984;20.426;2022-12-07T06:54:50;18.07;;;14.47;;
52744;SDS011;38637;49.984;20.426;2022-12-07T06:57:16;21.17;;;14.47;;
52744;SDS011;38637;49.984;20.426;2022-12-07T06:59:41;19.67;;;15.60;;
52744;SDS011;38637;49.984;20.426;2022-12-07T07:02:07;21.70;;;17.43;;
52744;SDS011;38637;49.984;20.426;2022-12-07T07:04:33;16.08;;;10.90;;
52744;SDS011;38637;49.984;20.426;2022-12-07T07:06:59;10.50;;;8.03;;
52744;SDS011;38637;49.984;20.426;2022-12-07T07:09:24;8.77;;;6.27;;
52744;SDS011;38637;49.984;20.426;2022-12-07T07:11:49;7.30;;;6.57;;
52744;SDS011;38637;49.984;20.426;2022-12-07T07:14:15;7.27;;;6.57;;
52744;SDS011;38637;49.984;20.426;2022-12-07T07:16:43;6.43;;;5.82;;
52744;SDS011;38637;49.984;20.426;2022-12-07T07:19:09;8.93;;;5.90;;
52744;SDS011;38637;49.984;20.426;2022-12-07T07:21:34;8.90;;;6.13;;
52744;SDS011;38637;49.984;20.426;2022-12-07T07:24:01;7.97;;;5.28;;
52744;SDS011;38637;49.984;20.426;2022-12-07T07:26:27;6.77;;;4.97;;
52744;SDS011;38637;49.984;20.426;2022-12-07T07:28:52;6.97;;;5.73;;
52744;SDS011;38637;49.984;20.426;2022-12-07T07:31:17;6.30;;;5.67;;
52744;SDS011;38637;49.984;20.426;2022-12-07T07:33:43;7.40;;;6.33;;
52744;SDS011;38637;49.984;20.426;2022-12-07T07:36:11;6.95;;;6.25;;
52744;SDS011;38637;49.984;20.426;2022-12-07T07:38:36;6.43;;;5.30;;
52744;SDS011;38637;49.984;20.426;2022-12-07T07:41:01;8.30;;;7.17;;
52744;SDS011;38637;49.984;20.426;2022-12-07T07:43:27;14.40;;;10.57;;
52744;SDS011;38637;49.984;20.426;2022-12-07T07:45:52;31.63;;;19.10;;
52744;SDS011;38637;49.984;20.426;2022-12-07T07:48:18;21.57;;;14.17;;
52744;SDS011;38637;49.984;20.426;2022-12-07T07:50:43;13.17;;;8.47;;
52744;SDS011;38637;49.984;20.426;2022-12-07T07:53:08;8.13;;;7.07;;
52744;SDS011;38637;49.984;20.426;2022-12-07T07:55:34;7.30;;;5.47;;
52744;SDS011;38637;49.984;20.426;2022-12-07T07:57:59;9.20;;;5.97;;
52744;SDS011;38637;49.984;20.426;2022-12-07T08:00:24;7.90;;;5.80;;
52744;SDS011;38637;49.984;20.426;2022-12-07T08:02:50;6.37;;;5.77;;
52744;SDS011;38637;49.984;20.426;2022-12-07T08:05:15;8.57;;;6.53;;
52744;SDS011;38637;49.984;20.426;2022-12-07T08:07:41;8.23;;;6.87;;
52744;SDS011;38637;49.984;20.426;2022-12-07T08:10:06;7.93;;;7.00;;
52744;SDS011;38637;49.984;20.426;2022-12-07T08:12:40;10.95;;;7.57;;
52744;SDS011;38637;49.984;20.426;2022-12-07T08:15:26;8.68;;;7.20;;
52744;SDS011;38637;49.984;20.426;2022-12-07T08:17:52;9.07;;;8.00;;
52744;SDS011;38637;49.984;20.426;2022-12-07T08:20:18;9.27;;;8.20;;
52744;SDS011;38637;49.984;20.426;2022-12-07T08:22:43;20.57;;;15.67;;
52744;SDS011;38637;49.984;20.426;2022-12-07T08:25:09;12.70;;;10.40;;
52744;SDS011;38637;49.984;20.426;2022-12-07T08:27:34;11.03;;;8.90;;
52744;SDS011;38637;49.984;20.426;2022-12-07T08:29:59;14.50;;;10.17;;
52744;SDS011;38637;49.984;20.426;2022-12-07T08:32:24;12.00;;;10.47;;
52744;SDS011;38637;49.984;20.426;2022-12-07T08:34:51;9.43;;;8.43;;
52744;SDS011;38637;49.984;20.426;2022-12-07T08:37:17;10.70;;;9.13;;
52744;SDS011;38637;49.984;20.426;2022-12-07T08:39:42;13.27;;;10.13;;
52744;SDS011;38637;49.984;20.426;2022-12-07T08:42:07;10.60;;;9.30;;
52744;SDS011;38637;49.984;20.426;2022-12-07T08:44:33;11.50;;;9.27;;
52744;SDS011;38637;49.984;20.426;2022-12-07T08:46:59;26.83;;;17.67;;
52744;SDS011;38637;49.984;20.426;2022-12-07T08:49:33;22.90;;;14.02;;
52744;SDS011;38637;49.984;20.426;2022-12-07T08:52:02;16.67;;;10.57;;
52744;SDS011;38637;49.984;20.426;2022-12-07T08:54:29;11.60;;;9.05;;
52744;SDS011;38637;49.984;20.426;2022-12-07T08:56:55;13.27;;;9.57;;
52744;SDS011;38637;49.984;20.426;2022-12-07T08:59:21;12.95;;;9.38;;
52744;SDS011;38637;49.984;20.426;2022-12-07T09:01:48;11.75;;;9.95;;
52744;SDS011;38637;49.984;20.426;2022-12-07T09:04:13;13.05;;;9.35;;
52744;SDS011;38637;49.984;20.426;2022-12-07T09:06:40;14.17;;;10.90;;
52744;SDS011;38637;49.984;20.426;2022-12-07T09:09:06;12.65;;;10.30;;
52744;SDS011;38637;49.984;20.426;2022-12-07T09:11:33;17.33;;;12.43;;
52744;SDS011;38637;49.984;20.426;2022-12-07T09:13:58;12.70;;;10.23;;
52744;SDS011;38637;49.984;20.426;2022-12-07T09:16:24;9.20;;;7.50;;
52744;SDS011;38637;49.984;20.426;2022-12-07T09:18:49;8.50;;;7.20;;
52744;SDS011;38637;49.984;20.426;2022-12-07T09:21:15;7.20;;;6.23;;
52744;SDS011;38637;49.984;20.426;2022-12-07T09:23:41;9.57;;;6.10;;
52744;SDS011;38637;49.984;20.426;2022-12-07T09:26:08;9.18;;;6.28;;
52744;SDS011;38637;49.984;20.426;2022-12-07T09:28:33;6.20;;;5.53;;
52744;SDS011;38637;49.984;20.426;2022-12-07T09:30:59;7.00;;;5.93;;
52744;SDS011;38637;49.984;20.426;2022-12-07T09:33:24;5.50;;;4.90;;
52744;SDS011;38637;49.984;20.426;2022-12-07T09:35:51;5.93;;;5.33;;
52744;SDS011;38637;49.984;20.426;2022-12-07T09:38:17;6.75;;;6.05;;
52744;SDS011;38637;49.984;20.426;2022-12-07T09:40:43;6.75;;;6.03;;
52744;SDS011;38637;49.984;20.426;2022-12-07T09:43:13;8.47;;;6.13;;
52744;SDS011;38637;49.984;20.426;2022-12-07T09:45:42;8.73;;;6.95;;
52744;SDS011;38637;49.984;20.426;2022-12-07T09:48:14;8.77;;;7.18;;
52744;SDS011;38637;49.984;20.426;2022-12-07T09:50:43;8.02;;;6.35;;
52744;SDS011;38637;49.984;20.426;2022-12-07T09:53:12;6.13;;;5.53;;
52744;SDS011;38637;49.984;20.426;2022-12-07T09:55:44;7.38;;;6.55;;
52744;SDS011;38637;49.984;20.426;2022-12-07T09:58:12;9.83;;;7.27;;
52744;SDS011;38637;49.984;20.426;2022-12-07T10:00:48;9.98;;;6.55;;
52744;SDS011;38637;49.984;20.426;2022-12-07T10:03:15;7.60;;;6.80;;
52744;SDS011;38637;49.984;20.426;2022-12-07T10:05:42;8.37;;;7.50;;
52744;SDS011;38637;49.984;20.426;2022-12-07T10:08:11;8.10;;;5.75;;
52744;SDS011;38637;49.984;20.426;2022-12-07T10:10:37;5.78;;;5.03;;
52744;SDS011;38637;49.984;20.426;2022-12-07T10:13:06;5.50;;;4.75;;
52744;SDS011;38637;49.984;20.426;2022-12-07T10:21:05;6.88;;;4.00;;
52744;SDS011;38637;49.984;20.426;2022-12-07T10:23:39;5.10;;;4.53;;
52744;SDS011;38637;49.984;20.426;2022-12-07T10:26:50;5.57;;;4.00;;
52744;SDS011;38637;49.984;20.426;2022-12-07T10:29:21;5.28;;;4.43;;
52744;SDS011;38637;49.984;20.426;2022-12-07T10:31:49;7.30;;;4.18;;
52744;SDS011;38637;49.984;20.426;2022-12-07T10:34:24;6.05;;;4.35;;
52744;SDS011;38637;49.984;20.426;2022-12-07T10:37:06;4.93;;;4.43;;
52744;SDS011;38637;49.984;20.426;2022-12-07T10:39:42;4.10;;;3.58;;
52744;SDS011;38637;49.984;20.426;2022-12-07T10:42:28;3.95;;;3.38;;
52744;SDS011;38637;49.984;20.426;2022-12-07T10:45:14;4.45;;;3.58;;
52744;SDS011;38637;49.984;20.426;2022-12-07T11:01:45;8.23;;;6.28;;
52744;SDS011;38637;49.984;20.426;2022-12-07T11:07:21;6.85;;;5.93;;
52744;SDS011;38637;49.984;20.426;2022-12-07T11:12:59;5.28;;;4.60;;
52744;SDS011;38637;49.984;20.426;2022-12-07T11:15:30;7.50;;;5.97;;
52744;SDS011;38637;49.984;20.426;2022-12-07T11:18:07;6.63;;;5.15;;
52744;SDS011;38637;49.984;20.426;2022-12-07T11:20:42;5.65;;;5.07;;
52744;SDS011;38637;49.984;20.426;2022-12-07T11:26:48;6.72;;;4.30;;
52744;SDS011;38637;49.984;20.426;2022-12-07T11:30:28;5.40;;;4.60;;
52744;SDS011;38637;49.984;20.426;2022-12-07T11:32:49;13.57;;;9.50;;
52744;SDS011;38637;49.984;20.426;2022-12-07T11:38:13;7.47;;;5.05;;
52744;SDS011;38637;49.984;20.426;2022-12-07T11:40:43;6.85;;;4.78;;
52744;SDS011;38637;49.984;20.426;2022-12-07T11:43:27;7.50;;;5.28;;
52744;SDS011;38637;49.984;20.426;2022-12-07T11:46:03;7.25;;;5.80;;
52744;SDS011;38637;49.984;20.426;2022-12-07T11:48:35;6.90;;;5.35;;
52744;SDS011;38637;49.984;20.426;2022-12-07T11:51:06;6.90;;;4.85;;
52744;SDS011;38637;49.984;20.426;2022-12-07T11:53:37;7.70;;;5.38;;
52744;SDS011;38637;49.984;20.426;2022-12-07T11:56:16;10.60;;;6.22;;
52744;SDS011;38637;49.984;20.426;2022-12-07T12:03:44;6.87;;;6.00;;
52744;SDS011;38637;49.984;20.426;2022-12-07T12:06:11;7.80;;;6.00;;
52744;SDS011;38637;49.984;20.426;2022-12-07T12:08:39;6.13;;;5.40;;
52744;SDS011;38637;49.984;20.426;2022-12-07T12:11:18;5.82;;;5.13;;
52744;SDS011;38637;49.984;20.426;2022-12-07T12:22:50;7.05;;;5.57;;
52744;SDS011;38637;49.984;20.426;2022-12-07T12:25:22;11.75;;;4.90;;
52744;SDS011;38637;49.984;20.426;2022-12-07T12:27:56;7.95;;;5.57;;
52744;SDS011;38637;49.984;20.426;2022-12-07T12:33:02;7.13;;;5.55;;
52744;SDS011;38637;49.984;20.426;2022-12-07T12:35:47;14.23;;;11.65;;
52744;SDS011;38637;49.984;20.426;2022-12-07T12:47:02;6.50;;;5.80;;
52744;SDS011;38637;49.984;20.426;2022-12-07T12:52:49;10.98;;;8.43;;
52744;SDS011;38637;49.984;20.426;2022-12-07T12:55:01;11.52;;;7.70;;
52744;SDS011;38637;49.984;20.426;2022-12-07T12:57:38;11.13;;;8.77;;
52744;SDS011;38637;49.984;20.426;2022-12-07T13:02:49;10.75;;;8.75;;
52744;SDS011;38637;49.984;20.426;2022-12-07T13:05:20;14.13;;;9.13;;
52744;SDS011;38637;49.984;20.426;2022-12-07T13:21:39;10.53;;;7.90;;
52744;SDS011;38637;49.984;20.426;2022-12-07T13:23:59;12.40;;;8.95;;
52744;SDS011;38637;49.984;20.426;2022-12-07T13:26:39;12.10;;;7.10;;
52744;SDS011;38637;49.984;20.426;2022-12-07T13:29:15;10.48;;;7.30;;
52744;SDS011;38637;49.984;20.426;2022-12-07T13:31:46;8.45;;;6.55;;
52744;SDS011;38637;49.984;20.426;2022-12-07T13:37:10;9.07;;;4.50;;
52744;SDS011;38637;49.984;20.426;2022-12-07T13:39:57;4.15;;;3.65;;
52744;SDS011;38637;49.984;20.426;2022-12-07T13:42:28;5.75;;;4.07;;
52744;SDS011;38637;49.984;20.426;2022-12-07T13:44:55;5.45;;;4.18;;
52744;SDS011;38637;49.984;20.426;2022-12-07T13:49:57;7.50;;;3.85;;
52744;SDS011;38637;49.984;20.426;2022-12-07T13:57:38;5.30;;;4.00;;
52744;SDS011;38637;49.984;20.426;2022-12-07T14:00:05;5.20;;;4.70;;
52744;SDS011;38637;49.984;20.426;2022-12-07T14:02:53;7.10;;;5.25;;
52744;SDS011;38637;49.984;20.426;2022-12-07T14:05:25;6.43;;;5.07;;
52744;SDS011;38637;49.984;20.426;2022-12-07T14:07:57;7.50;;;5.80;;
52744;SDS011;38637;49.984;20.426;2022-12-07T14:10:26;8.95;;;6.10;;
52744;SDS011;38637;49.984;20.426;2022-12-07T14:12:56;8.65;;;5.75;;
52744;SDS011;38637;49.984;20.426;2022-12-07T14:15:23;7.85;;;5.55;;
52744;SDS011;38637;49.984;20.426;2022-12-07T14:17:53;7.90;;;6.35;;
52744;SDS011;38637;49.984;20.426;2022-12-07T14:22:57;7.67;;;5.47;;
52744;SDS011;38637;49.984;20.426;2022-12-07T14:25:24;8.70;;;6.50;;
52744;SDS011;38637;49.984;20.426;2022-12-07T14:27:55;7.28;;;5.80;;
52744;SDS011;38637;49.984;20.426;2022-12-07T14:30:24;10.52;;;7.32;;
52744;SDS011;38637;49.984;20.426;2022-12-07T14:32:53;11.30;;;7.07;;
52744;SDS011;38637;49.984;20.426;2022-12-07T14:35:23;9.82;;;7.45;;
52744;SDS011;38637;49.984;20.426;2022-12-07T14:37:49;11.50;;;7.57;;
52744;SDS011;38637;49.984;20.426;2022-12-07T14:40:20;7.77;;;6.30;;
52744;SDS011;38637;49.984;20.426;2022-12-07T14:43:11;8.48;;;6.20;;
52744;SDS011;38637;49.984;20.426;2022-12-07T14:45:37;9.23;;;6.50;;
52744;SDS011;38637;49.984;20.426;2022-12-07T14:48:04;9.13;;;7.75;;
52744;SDS011;38637;49.984;20.426;2022-12-07T14:50:30;9.90;;;7.65;;
52744;SDS011;38637;49.984;20.426;2022-12-07T14:53:03;12.48;;;8.40;;
52744;SDS011;38637;49.984;20.426;2022-12-07T14:55:36;9.32;;;7.70;;
52744;SDS011;38637;49.984;20.426;2022-12-07T14:58:01;11.23;;;8.97;;
52744;SDS011;38637;49.984;20.426;2022-12-07T15:00:27;10.53;;;8.20;;
52744;SDS011;38637;49.984;20.426;2022-12-07T15:02:53;11.70;;;7.95;;
52744;SDS011;38637;49.984;20.426;2022-12-07T15:05:19;12.07;;;8.45;;
52744;SDS011;38637;49.984;20.426;2022-12-07T15:07:45;13.13;;;8.23;;
52744;SDS011;38637;49.984;20.426;2022-12-07T15:10:19;12.88;;;9.13;;
52744;SDS011;38637;49.984;20.426;2022-12-07T15:12:54;13.35;;;9.10;;
52744;SDS011;38637;49.984;20.426;2022-12-07T15:15:19;10.33;;;8.13;;
52744;SDS011;38637;49.984;20.426;2022-12-07T15:17:45;11.20;;;8.03;;
52744;SDS011;38637;49.984;20.426;2022-12-07T15:20:14;12.83;;;8.67;;
52744;SDS011;38637;49.984;20.426;2022-12-07T15:22:41;11.68;;;8.50;;
52744;SDS011;38637;49.984;20.426;2022-12-07T15:25:08;11.40;;;8.90;;
52744;SDS011;38637;49.984;20.426;2022-12-07T15:27:33;12.48;;;9.50;;
52744;SDS011;38637;49.984;20.426;2022-12-07T15:29:59;14.83;;;9.83;;
52744;SDS011;38637;49.984;20.426;2022-12-07T15:32:24;13.87;;;9.73;;
52744;SDS011;38637;49.984;20.426;2022-12-07T15:34:50;17.13;;;10.90;;
52744;SDS011;38637;49.984;20.426;2022-12-07T15:37:15;14.40;;;10.47;;
52744;SDS011;38637;49.984;20.426;2022-12-07T15:39:41;14.00;;;9.83;;
52744;SDS011;38637;49.984;20.426;2022-12-07T15:42:06;14.10;;;10.00;;
52744;SDS011;38637;49.984;20.426;2022-12-07T15:44:31;12.93;;;10.33;;
52744;SDS011;38637;49.984;20.426;2022-12-07T15:47:15;13.07;;;10.40;;
52744;SDS011;38637;49.984;20.426;2022-12-07T15:49:42;14.80;;;10.50;;
52744;SDS011;38637;49.984;20.426;2022-12-07T15:54:33;12.55;;;8.80;;
52744;SDS011;38637;49.984;20.426;2022-12-07T15:56:58;13.17;;;9.47;;
52744;SDS011;38637;49.984;20.426;2022-12-07T15:59:25;15.20;;;9.43;;
52744;SDS011;38637;49.984;20.426;2022-12-07T16:01:51;12.02;;;8.73;;
52744;SDS011;38637;49.984;20.426;2022-12-07T16:04:16;10.87;;;8.07;;
52744;SDS011;38637;49.984;20.426;2022-12-07T16:06:42;13.43;;;7.90;;
52744;SDS011;38637;49.984;20.426;2022-12-07T16:09:07;9.70;;;7.40;;
52744;SDS011;38637;49.984;20.426;2022-12-07T16:11:33;11.93;;;8.53;;
52744;SDS011;38637;49.984;20.426;2022-12-07T16:13:58;17.03;;;10.53;;
52744;SDS011;38637;49.984;20.426;2022-12-07T16:16:24;15.77;;;11.83;;
52744;SDS011;38637;49.984;20.426;2022-12-07T16:18:50;16.23;;;10.55;;
52744;SDS011;38637;49.984;20.426;2022-12-07T16:21:16;14.00;;;10.47;;
52744;SDS011;38637;49.984;20.426;2022-12-07T16:23:43;13.68;;;10.27;;
52744;SDS011;38637;49.984;20.426;2022-12-07T16:26:19;14.30;;;10.60;;
52744;SDS011;38637;49.984;20.426;2022-12-07T16:28:50;17.40;;;10.57;;
52744;SDS011;38637;49.984;20.426;2022-12-07T16:31:18;16.27;;;11.20;;
52744;SDS011;38637;49.984;20.426;2022-12-07T16:33:45;17.65;;;12.02;;
52744;SDS011;38637;49.984;20.426;2022-12-07T16:36:11;16.13;;;11.03;;
52744;SDS011;38637;49.984;20.426;2022-12-07T16:38:38;15.02;;;10.65;;
52744;SDS011;38637;49.984;20.426;2022-12-07T16:41:04;15.80;;;11.03;;
52744;SDS011;38637;49.984;20.426;2022-12-07T16:43:31;15.32;;;11.52;;
52744;SDS011;38637;49.984;20.426;2022-12-07T16:45:57;16.43;;;11.43;;